KHOB/HOB METAR and TAF weather

Enter ICAO airport designator
Station Type Date Time Source
KHOB METAR 2024/04/18 07:35 UTC NOAA

KHOB 180735Z AUTO 25008KT 10SM CLR 14/M13 A2993 RMK AO2


Station Type Date Time Source
KHOB Decoded METAR 2024/04/18 07:35 UTC NOAA

Hobbs / Lea County, NM, United States (KHOB) 32-41N 103-13W
Apr 18, 2024 - 03:35 AM EDT / 2024.04.18 0735 UTC
Wind: from the WSW (250 degrees) at 9 MPH (8 KT):0
Visibility: 10 mile(s):0
Sky conditions: clear
Temperature: 57 F (14 C)
Dew Point: 8 F (-13 C)
Relative Humidity: 14%
Pressure (altimeter): 29.93 in. Hg (1013 hPa)
ob: KHOB 180735Z AUTO 25008KT 10SM CLR 14/M13 A2993 RMK AO2
cycle: 7

Station Type Date Time Source
KHOB TAF 2024/04/18 06:22 UTC NOAA